Time;durP1;ratioP1;P1;durP2;ratioP2;P2;SDS_P1;SDS_P2;PMS_P1;PMS_P2;Temp;Humidity;BMP_temperature;BMP_pressure;BME280_temperature;BME280_humidity;BME280_pressure;Samples;Min_cycle;Max_cycle;Signal;HPM_P1;HPM_P2
2022/09/08 00:00:45;;;;;;;16.37;8.07;;;;;;;40.48;34.86;101049.53;6159079;23;20880;-75
2022/09/08 00:03:15;;;;;;;27.70;9.10;;;;;;;40.25;34.72;101055.09;6159081;23;20384;-76
2022/09/08 00:06:04;;;;;;;20.57;8.53;;;;;;;40.67;34.56;101052.72;6159247;23;20384;-77
2022/09/08 00:08:31;;;;;;;18.53;9.83;;;;;;;40.65;34.39;101048.75;6158720;23;20485;-77
2022/09/08 00:10:59;;;;;;;13.07;6.07;;;;;;;40.41;34.71;101041.03;6158587;23;20380;-75
2022/09/08 00:13:27;;;;;;;14.60;6.30;;;;;;;40.64;34.13;101038.97;6157520;23;20853;-77
2022/09/08 02:42:01;;;;;;;18.27;9.20;;;;;;;39.04;40.83;101018.44;5163492;27;20534;-75
2022/09/08 02:44:27;;;;;;;13.33;6.93;;;;;;;39.21;39.91;101016.66;5130683;27;20447;-74
2022/09/08 02:46:53;;;;;;;11.90;6.70;;;;;;;39.15;39.76;101012.44;5128914;27;20439;-76
2022/09/08 02:49:20;;;;;;;15.77;7.80;;;;;;;39.46;39.28;101015.19;5149162;27;20430;-76
2022/09/08 02:51:46;;;;;;;12.70;7.43;;;;;;;39.39;39.78;101027.59;5134936;27;20508;-74
2022/09/08 02:54:13;;;;;;;13.03;7.30;;;;;;;39.57;39.13;101004.06;5148199;27;20975;-74
2022/09/08 02:56:39;;;;;;;14.23;9.17;;;;;;;39.67;37.84;101010.03;5149296;27;20426;-76
2022/09/08 02:59:05;;;;;;;17.57;9.27;;;;;;;39.75;38.01;101005.72;5149128;27;20426;-76
2022/09/08 03:01:31;;;;;;;21.07;8.63;;;;;;;39.82;37.92;101008.78;5149171;27;20425;-76
2022/09/08 03:03:57;;;;;;;15.90;9.70;;;;;;;39.04;39.62;101004.88;5133082;27;20419;-75
2022/09/08 03:06:23;;;;;;;20.73;8.33;;;;;;;39.33;38.91;101002.50;5148790;27;20423;-76
2022/09/08 03:08:49;;;;;;;17.83;6.53;;;;;;;39.02;39.59;101007.91;5135205;27;20848;-76
2022/09/08 03:11:16;;;;;;;13.90;7.67;;;;;;;39.56;38.95;101005.16;5147332;27;20497;-76
2022/09/08 03:13:42;;;;;;;19.77;7.73;;;;;;;39.69;38.62;101010.50;5148987;27;20451;-74
2022/09/08 03:16:09;;;;;;;22.07;10.80;;;;;;;39.62;38.71;101014.81;5149659;27;20418;-74
2022/09/08 03:18:35;;;;;;;27.47;9.40;;;;;;;39.90;38.19;101016.16;5139119;27;20775;-76
2022/09/08 03:21:10;;;;;;;14.90;7.87;;;;;;;39.53;38.08;101012.00;5143424;27;20437;-76
2022/09/08 03:23:38;;;;;;;14.43;6.60;;;;;;;40.08;37.31;101018.94;5148546;27;20417;-76
2022/09/08 03:26:07;;;;;;;21.33;6.53;;;;;;;39.60;37.85;101008.88;5149559;27;20434;-76
2022/09/08 03:28:33;;;;;;;23.30;9.67;;;;;;;39.81;37.98;101014.53;5148355;27;20418;-76
2022/09/08 03:30:59;;;;;;;22.07;8.90;;;;;;;39.34;38.53;101014.97;5148069;27;21053;-76
2022/09/08 03:33:25;;;;;;;18.67;9.10;;;;;;;39.54;38.48;101023.69;5149008;27;20564;-76
2022/09/08 03:35:51;;;;;;;12.13;7.53;;;;;;;39.58;38.26;101022.72;5148229;27;20426;-76
2022/09/08 03:38:18;;;;;;;16.10;7.47;;;;;;;39.88;37.73;101023.81;5148005;27;20429;-76
2022/09/08 03:40:45;;;;;;;24.83;10.30;;;;;;;40.12;37.34;101028.06;5146864;27;21041;-76
2022/09/08 03:43:11;;;;;;;25.70;8.83;;;;;;;39.92;37.65;101022.06;5133809;27;20427;-76
2022/09/08 03:45:42;;;;;;;17.73;11.00;;;;;;;39.89;37.58;101024.63;5134121;27;20423;-76
2022/09/08 03:48:08;;;;;;;25.23;9.20;;;;;;;39.77;37.74;101033.38;5134323;27;20489;-74
2022/09/08 03:50:34;;;;;;;14.70;6.97;;;;;;;39.92;37.87;101035.66;5134109;27;20458;-74
2022/09/08 03:53:00;;;;;;;25.80;8.80;;;;;;;39.67;38.05;101030.97;5134126;27;20423;-76
2022/09/08 03:55:26;;;;;;;23.60;8.73;;;;;;;39.33;38.57;101035.09;5133862;27;20443;-76
2022/09/08 03:57:52;;;;;;;26.13;9.03;;;;;;;39.82;38.11;101043.28;5133875;27;20439;-75
2022/09/08 04:00:18;;;;;;;18.07;7.43;;;;;;;39.74;37.75;101032.09;5133951;27;20419;-74
2022/09/08 04:02:45;;;;;;;18.83;8.50;;;;;;;40.08;37.75;101036.03;5133799;27;20462;-76
2022/09/08 04:05:11;;;;;;;11.30;6.97;;;;;;;40.01;37.36;101041.91;5133790;27;20519;-74
2022/09/08 04:07:38;;;;;;;20.87;8.60;;;;;;;39.97;37.06;101042.88;5127738;27;20477;-74
2022/09/08 04:10:06;;;;;;;24.00;8.77;;;;;;;40.24;37.25;101045.34;5112945;28;20452;-74
2022/09/08 04:12:33;;;;;;;21.70;8.83;;;;;;;40.45;36.55;101041.97;5132085;27;20419;-75
2022/09/08 04:14:59;;;;;;;24.30;10.10;;;;;;;40.51;36.53;101049.69;5122714;27;20519;-74
2022/09/08 04:17:25;;;;;;;18.17;7.77;;;;;;;40.39;36.86;101048.69;5115735;27;21000;-74
2022/09/08 04:19:52;;;;;;;18.07;8.07;;;;;;;40.37;37.06;101051.75;5134192;27;20419;-74
2022/09/08 04:22:21;;;;;;;21.93;9.43;;;;;;;40.67;36.44;101052.72;5118960;27;20424;-74
2022/09/08 04:24:48;;;;;;;21.37;9.30;;;;;;;39.75;37.91;101054.63;5133627;27;21137;-76
2022/09/08 04:27:15;;;;;;;14.50;7.60;;;;;;;39.58;38.14;101063.47;5133460;27;20418;-76
2022/09/08 04:29:41;;;;;;;19.50;11.60;;;;;;;39.94;37.83;101057.88;5133241;27;20454;-75
2022/09/08 04:32:07;;;;;;;17.57;7.37;;;;;;;40.19;36.94;101069.16;5133295;27;20809;-74
2022/09/08 04:34:35;;;;;;;20.23;10.13;;;;;;;39.51;37.50;101073.97;5133114;27;20472;-76
2022/09/08 04:37:02;;;;;;;20.57;11.70;;;;;;;39.85;36.61;101075.28;5133388;27;20450;-75
2022/09/08 04:39:28;;;;;;;24.07;9.10;;;;;;;39.71;37.00;101081.59;5134443;27;20434;-74
2022/09/08 04:41:54;;;;;;;21.13;9.37;;;;;;;39.86;36.90;101074.16;5132752;27;20845;-74
2022/09/08 04:44:20;;;;;;;24.63;8.17;;;;;;;39.76;37.06;101083.38;5133194;27;20422;-74
2022/09/08 04:46:47;;;;;;;23.90;8.13;;;;;;;39.79;37.09;101096.34;5132943;27;20500;-74
2022/09/08 04:49:13;;;;;;;18.53;8.30;;;;;;;39.92;37.07;101089.19;5132813;27;20818;-76
2022/09/08 04:51:40;;;;;;;20.83;8.30;;;;;;;39.85;37.04;101078.00;5132809;27;20484;-76
2022/09/08 04:54:06;;;;;;;18.73;7.70;;;;;;;39.92;37.16;101087.28;5131873;27;21053;-76
2022/09/08 04:56:32;;;;;;;22.47;9.73;;;;;;;39.71;36.87;101089.72;5132921;27;20475;-76
2022/09/08 04:59:00;;;;;;;17.80;7.63;;;;;;;39.62;37.53;101090.81;5132602;27;20422;-75
2022/09/08 05:01:29;;;;;;;18.80;10.03;;;;;;;40.01;37.01;101087.28;5134175;27;20487;-74
2022/09/08 05:03:59;;;;;;;18.10;8.80;;;;;;;39.99;37.10;101093.03;5132534;27;20944;-74
2022/09/08 05:06:26;;;;;;;16.83;8.80;;;;;;;40.12;36.95;101091.34;5132781;27;20510;-74
2022/09/08 05:08:55;;;;;;;21.03;8.57;;;;;;;39.58;37.18;101087.88;5133851;27;20414;-74
2022/09/08 05:11:22;;;;;;;18.40;6.53;;;;;;;39.60;37.84;101093.84;5132421;27;20462;-74
2022/09/08 05:13:51;;;;;;;22.13;8.80;;;;;;;39.74;37.32;101097.28;5132330;27;20907;-74
2022/09/08 05:16:20;;;;;;;27.73;9.43;;;;;;;39.82;37.42;101101.13;5132414;27;20446;-74
2022/09/08 05:18:48;;;;;;;17.33;8.17;;;;;;;40.07;36.59;101098.84;5132488;27;20427;-74
2022/09/08 05:21:14;;;;;;;20.53;9.13;;;;;;;40.09;36.18;101099.34;5132203;27;20492;-74
2022/09/08 05:23:41;;;;;;;21.43;10.90;;;;;;;40.42;35.77;101105.16;5132292;27;20526;-75
2022/09/08 05:26:10;;;;;;;15.20;7.40;;;;;;;40.46;35.44;101101.50;5132206;27;20504;-74
2022/09/08 05:28:38;;;;;;;25.47;8.30;;;;;;;40.37;35.79;101097.16;5132112;27;20513;-74
2022/09/08 05:31:06;;;;;;;12.57;7.50;;;;;;;39.93;36.24;101104.38;5132026;27;20499;-75
2022/09/08 05:33:33;;;;;;;14.30;7.53;;;;;;;40.07;36.41;101107.78;5133282;27;20525;-76
2022/09/08 05:35:59;;;;;;;32.07;9.83;;;;;;;40.19;36.64;101107.97;5133349;27;20838;-75
2022/09/08 05:38:26;;;;;;;43.90;12.40;;;;;;;40.19;36.32;101109.91;5124305;27;20443;-74
2022/09/08 05:40:52;;;;;;;12.90;8.40;;;;;;;40.13;36.45;101109.25;5120353;27;20467;-74
2022/09/08 05:43:19;;;;;;;30.43;11.27;;;;;;;40.31;35.94;101104.66;5131923;27;20423;-76
2022/09/08 05:45:47;;;;;;;22.20;8.40;;;;;;;40.07;36.86;101107.00;5131700;27;20451;-76
2022/09/08 05:48:14;;;;;;;25.50;8.50;;;;;;;39.97;36.89;101099.91;5131776;27;20434;-76
2022/09/08 05:50:45;;;;;;;13.57;7.70;;;;;;;40.05;36.93;101095.66;5131112;27;21020;-78
2022/09/08 05:53:12;;;;;;;25.63;8.70;;;;;;;40.17;36.54;101099.34;5126024;27;20423;-80
2022/09/08 05:55:40;;;;;;;30.30;9.20;;;;;;;40.24;36.57;101091.53;5121287;27;21025;-75
2022/09/08 05:58:12;;;;;;;21.60;12.07;;;;;;;40.39;36.50;101094.91;5124308;27;20449;-76
2022/09/08 06:00:38;;;;;;;20.53;9.23;;;;;;;40.19;36.75;101105.25;5122567;27;20940;-79
2022/09/08 06:03:04;;;;;;;18.70;9.00;;;;;;;40.20;36.65;101103.34;5120616;27;20989;-74
2022/09/08 06:05:34;;;;;;;19.57;9.70;;;;;;;40.38;36.59;101110.41;5121785;27;20452;-78
2022/09/08 06:08:00;;;;;;;16.83;8.87;;;;;;;40.21;36.43;101107.69;5112537;27;20514;-75
2022/09/08 06:10:26;;;;;;;18.53;10.53;;;;;;;40.12;36.78;101121.25;5126486;27;20458;-73
2022/09/08 06:12:54;;;;;;;40.17;9.60;;;;;;;40.12;36.84;101120.44;5132875;27;20415;-74
2022/09/08 06:15:20;;;;;;;34.10;10.50;;;;;;;40.41;36.16;101122.59;5117771;27;20784;-73
2022/09/08 06:17:46;;;;;;;26.03;11.77;;;;;;;40.17;36.77;101123.81;5131812;27;20458;-74
2022/09/08 06:20:12;;;;;;;29.00;10.83;;;;;;;40.38;36.88;101137.59;5126464;27;20419;-76
2022/09/08 06:22:38;;;;;;;21.00;9.73;;;;;;;40.28;36.79;101133.28;5116868;28;20418;-75
2022/09/08 06:25:04;;;;;;;17.63;9.33;;;;;;;39.98;37.26;101134.13;5120157;27;20843;-78
2022/09/08 06:27:56;;;;;;;33.67;11.47;;;;;;;40.15;37.16;101147.00;5116350;27;20487;-77
2022/09/08 06:30:22;;;;;;;13.77;8.43;;;;;;;40.01;37.01;101142.41;5119763;28;20544;-75
2022/09/08 06:32:53;;;;;;;22.10;12.07;;;;;;;40.10;37.42;101149.84;5114355;28;20984;-74
2022/09/08 06:35:27;;;;;;;25.20;10.00;;;;;;;40.24;36.85;101143.16;5120915;28;20435;-75
2022/09/08 06:37:57;;;;;;;25.23;9.30;;;;;;;40.55;36.68;101142.31;5114141;28;20450;-76
2022/09/08 06:40:35;;;;;;;20.43;11.50;;;;;;;40.55;36.79;101140.38;5116419;28;20467;-76
2022/09/08 06:43:18;;;;;;;26.40;10.37;;;;;;;40.47;36.94;101149.34;5132459;27;20439;-76
2022/09/08 06:45:53;;;;;;;21.87;10.47;;;;;;;40.17;37.68;101147.47;5118421;28;20445;-75
2022/09/08 06:48:22;;;;;;;27.63;10.60;;;;;;;40.30;37.53;101149.25;5130062;28;20550;-76
2022/09/08 06:51:25;;;;;;;26.13;10.43;;;;;;;40.25;37.43;101149.41;5129792;28;20415;-76
2022/09/08 06:54:09;;;;;;;28.20;8.90;;;;;;;40.18;37.40;101149.88;5130118;28;20415;-76
2022/09/08 06:56:51;;;;;;;16.90;10.03;;;;;;;40.37;37.05;101156.97;5128682;28;20566;-75
2022/09/08 06:59:43;;;;;;;32.93;9.27;;;;;;;39.95;37.55;101156.47;5124159;28;20945;-71
2022/09/08 07:02:29;;;;;;;15.43;7.03;;;;;;;39.90;37.71;101165.56;5122876;28;20430;-73
2022/09/08 07:05:15;;;;;;;20.60;9.80;;;;;;;39.44;38.61;101166.72;5121987;28;20449;-73
2022/09/08 07:07:48;;;;;;;28.13;11.50;;;;;;;39.79;37.82;101171.59;5131033;28;20415;-72
2022/09/08 07:10:47;;;;;;;18.00;7.60;;;;;;;39.87;37.52;101173.53;5115301;28;20478;-72
2022/09/08 07:13:22;;;;;;;18.97;8.87;;;;;;;39.84;37.57;101174.13;5100894;28;20428;-73
2022/09/08 07:15:53;;;;;;;27.57;10.43;;;;;;;39.74;37.90;101173.31;5115219;28;20504;-72
2022/09/08 07:18:45;;;;;;;24.80;10.50;;;;;;;39.72;37.80;101169.31;5124147;27;20462;-72
2022/09/08 07:21:20;;;;;;;19.80;9.33;;;;;;;39.74;37.88;101181.47;5134746;27;20621;-72
2022/09/08 07:23:48;;;;;;;23.57;10.40;;;;;;;40.13;37.05;101189.97;5135559;27;20421;-72
2022/09/08 07:26:34;;;;;;;12.77;8.33;;;;;;;39.58;37.68;101190.25;5118013;27;20442;-71
2022/09/08 07:29:17;;;;;;;16.40;8.67;;;;;;;40.21;36.94;101191.94;5118620;27;20431;-73
2022/09/08 07:31:49;;;;;;;17.93;9.50;;;;;;;40.37;37.04;101200.44;5114050;27;20444;-72
2022/09/08 07:34:20;;;;;;;34.37;8.50;;;;;;;40.25;37.03;101201.03;5114928;27;20423;-72
2022/09/08 07:37:23;;;;;;;21.70;9.60;;;;;;;40.14;37.46;101214.09;5113793;27;20428;-72
2022/09/08 07:40:05;;;;;;;20.53;9.40;;;;;;;40.60;36.54;101210.16;5128555;27;20477;-72
2022/09/08 07:42:31;;;;;;;16.40;7.73;;;;;;;40.58;36.49;101217.00;5133732;27;20434;-72
2022/09/08 07:45:00;;;;;;;28.83;11.27;;;;;;;40.47;36.75;101220.03;5133594;27;20419;-72
2022/09/08 07:48:02;;;;;;;26.13;9.47;;;;;;;40.55;36.90;101223.88;5132309;27;20423;-72
2022/09/08 07:50:54;;;;;;;22.83;9.90;;;;;;;40.47;36.89;101219.19;5134110;27;20445;-72
2022/09/08 07:53:43;;;;;;;20.43;9.50;;;;;;;40.49;37.05;101225.16;5135209;27;20905;-73
2022/09/08 07:56:21;;;;;;;18.03;8.30;;;;;;;40.38;36.80;101224.59;5123820;27;20423;-72
2022/09/08 07:59:18;;;;;;;21.60;9.33;;;;;;;40.63;37.06;101219.56;5130800;27;20438;-72
2022/09/08 08:01:56;;;;;;;24.50;8.07;;;;;;;40.27;37.15;101217.84;5134000;27;20782;-72
2022/09/08 08:04:55;;;;;;;15.33;7.20;;;;;;;40.43;36.27;101224.44;5133861;27;20442;-72
2022/09/08 08:07:33;;;;;;;14.20;7.13;;;;;;;40.18;37.06;101220.53;5115761;27;20421;-72
2022/09/08 08:10:13;;;;;;;17.50;9.13;;;;;;;40.24;36.56;101226.63;5088127;28;20415;-71
2022/09/08 08:13:19;;;;;;;13.30;7.23;;;;;;;40.62;36.22;101231.56;5134141;27;20450;-72
2022/09/08 08:15:52;;;;;;;13.00;6.37;;;;;;;40.35;36.74;101225.22;5118845;27;20426;-73
2022/09/08 08:18:30;;;;;;;16.33;9.83;;;;;;;40.51;36.54;101228.34;5117353;27;20465;-73
2022/09/08 08:21:05;;;;;;;22.10;8.30;;;;;;;40.67;36.93;101226.78;5134808;27;20457;-72
2022/09/08 08:24:00;;;;;;;25.80;9.77;;;;;;;41.02;35.94;101229.59;5133501;27;20475;-71
2022/09/08 08:26:54;;;;;;;16.27;8.63;;;;;;;40.72;36.56;101232.09;5127821;27;20415;-72
2022/09/08 08:29:41;;;;;;;27.47;8.40;;;;;;;40.61;36.12;101233.50;5133267;27;20499;-72
2022/09/08 08:32:16;;;;;;;20.43;7.57;;;;;;;40.39;36.57;101239.81;5052783;22;20494;-72
2022/09/08 08:35:37;;;;;;;26.97;10.67;;;;;;;39.68;37.76;101236.22;5031986;28;20458;-73
2022/09/08 08:38:05;;;;;;;17.90;8.40;;;;;;;40.12;36.67;101232.66;4926851;29;20481;-73
2022/09/08 08:40:56;;;;;;;18.50;8.37;;;;;;;40.27;36.62;101239.59;5012986;28;20478;-72
2022/09/08 08:43:40;;;;;;;13.53;7.20;;;;;;;40.65;36.07;101229.03;5032058;28;20936;-71
2022/09/08 08:46:12;;;;;;;27.40;7.30;;;;;;;40.73;35.65;101243.75;5032189;28;20455;-71
2022/09/08 08:49:12;;;;;;;19.47;8.40;;;;;;;40.69;36.20;101238.16;5031908;28;20505;-75
2022/09/08 08:52:15;;;;;;;16.70;8.10;;;;;;;40.34;37.10;101245.38;5031877;28;20423;-72
2022/09/08 08:54:46;;;;;;;26.33;8.37;;;;;;;40.74;36.79;101248.88;5033253;28;20476;-72
2022/09/08 08:57:30;;;;;;;16.00;7.30;;;;;;;40.67;36.15;101245.81;5031733;28;20428;-72
2022/09/08 09:00:13;;;;;;;14.07;6.77;;;;;;;40.27;36.96;101255.91;5031573;28;20467;-73
2022/09/08 09:02:51;;;;;;;17.47;10.87;;;;;;;40.41;37.24;101262.03;5018872;28;20431;-72
2022/09/08 09:05:23;;;;;;;32.53;10.20;;;;;;;40.16;37.30;101251.84;5032782;28;20466;-69
2022/09/08 09:08:33;;;;;;;22.53;8.37;;;;;;;40.43;37.47;101253.56;5031654;28;20458;-69
2022/09/08 09:11:36;;;;;;;23.60;9.60;;;;;;;40.49;36.92;101255.06;5019608;28;20439;-71
2022/09/08 09:14:34;;;;;;;28.30;10.30;;;;;;;40.40;37.75;101265.88;5031393;28;20526;-71
2022/09/08 09:17:33;;;;;;;21.50;10.53;;;;;;;40.80;37.00;101255.78;5031492;28;20905;-71
2022/09/08 09:20:20;;;;;;;26.70;9.60;;;;;;;40.77;36.14;101255.63;4994780;28;20470;-71
2022/09/08 09:23:04;;;;;;;21.43;8.53;;;;;;;40.83;36.33;101256.28;5032575;28;20976;-71
2022/09/08 09:25:34;;;;;;;20.53;8.53;;;;;;;40.91;35.72;101264.47;5031201;28;20454;-71
2022/09/08 09:28:03;;;;;;;18.30;7.57;;;;;;;41.10;35.88;101257.94;5031233;28;20420;-71
2022/09/08 09:30:54;;;;;;;16.07;7.77;;;;;;;41.13;35.43;101262.72;5032290;28;20967;-70
2022/09/08 09:33:57;;;;;;;25.77;8.90;;;;;;;40.90;36.37;101270.22;5031187;28;20415;-70
2022/09/08 09:36:35;;;;;;;26.73;6.53;;;;;;;40.79;36.34;101269.69;5032418;28;20966;-70
2022/09/08 09:39:33;;;;;;;11.20;5.93;;;;;;;40.78;35.91;101268.09;5031762;28;20476;-72
2022/09/08 09:42:27;;;;;;;13.93;5.87;;;;;;;40.77;36.45;101258.34;5030785;28;20490;-74
2022/09/08 09:45:22;;;;;;;15.77;6.70;;;;;;;40.57;36.81;101248.03;5030722;28;20428;-74
2022/09/08 09:48:00;;;;;;;17.53;7.77;;;;;;;40.44;37.57;101261.41;5030719;28;20829;-74
2022/09/08 09:51:07;;;;;;;17.13;6.50;;;;;;;40.95;36.36;101259.22;5030953;28;20945;-75
2022/09/08 09:54:00;;;;;;;17.87;9.43;;;;;;;40.58;36.72;101265.94;5030153;28;20429;-75
2022/09/08 09:56:36;;;;;;;13.60;6.50;;;;;;;40.83;35.98;101259.00;5030812;28;20430;-75
2022/09/08 09:59:10;;;;;;;14.13;7.50;;;;;;;41.07;36.23;101252.03;5030566;28;20573;-74
2022/09/08 10:01:45;;;;;;;15.07;8.50;;;;;;;40.99;35.70;101252.00;5030647;28;20455;-75
2022/09/08 10:04:35;;;;;;;18.83;9.80;;;;;;;41.29;35.91;101248.31;5030437;28;20415;-76
2022/09/08 10:07:22;;;;;;;20.83;7.87;;;;;;;41.31;35.42;101242.56;5030435;28;20420;-77
2022/09/08 10:10:09;;;;;;;16.63;8.80;;;;;;;41.18;35.54;101233.44;5020830;28;20798;-77
2022/09/08 10:12:57;;;;;;;23.80;9.67;;;;;;;41.17;35.67;101233.75;5028798;28;20829;-77
2022/09/08 10:15:41;;;;;;;14.00;6.40;;;;;;;41.05;35.96;101237.13;5016785;28;20795;-76
2022/09/08 10:18:32;;;;;;;32.53;14.60;;;;;;;40.24;37.58;101238.28;5018920;28;20428;-76
2022/09/08 10:21:07;;;;;;;28.20;11.93;;;;;;;39.40;38.79;101240.91;5027987;28;20460;-74
2022/09/08 10:24:01;;;;;;;21.07;8.57;;;;;;;39.49;39.21;101236.38;5021320;28;20433;-75
2022/09/08 10:26:57;;;;;;;27.30;9.40;;;;;;;39.99;38.17;101230.78;5030520;28;20435;-76
2022/09/08 10:29:44;;;;;;;22.07;8.30;;;;;;;39.66;38.64;101225.66;5030190;28;20831;-77
2022/09/08 10:32:36;;;;;;;13.80;7.30;;;;;;;39.34;38.82;101231.28;5030024;28;20505;-77
2022/09/08 10:35:20;;;;;;;22.80;7.37;;;;;;;39.58;38.83;101229.06;5023485;28;20444;-76
2022/09/08 10:38:17;;;;;;;10.43;6.27;;;;;;;39.55;38.61;101229.72;5031410;28;20429;-75
2022/09/08 10:40:56;;;;;;;18.03;9.63;;;;;;;39.50;38.68;101235.25;5018635;28;20986;-73
2022/09/08 10:47:29;;;;;;;17.87;6.50;;;;;;;40.09;37.56;101241.44;5031191;28;20962;-77
2022/09/08 10:50:14;;;;;;;12.83;8.00;;;;;;;39.84;38.15;101237.44;5004112;28;20453;-78
2022/09/08 10:52:43;;;;;;;16.67;7.90;;;;;;;40.09;37.82;101235.22;5022883;28;20439;-78
2022/09/08 10:55:36;;;;;;;14.23;6.40;;;;;;;40.38;37.42;101224.59;5034017;28;20430;-77
2022/09/08 10:58:21;;;;;;;12.97;4.97;;;;;;;39.73;37.50;101236.88;5033842;28;20443;-77
2022/09/08 11:01:08;;;;;;;23.23;6.63;;;;;;;39.74;38.01;101237.69;5035164;28;20546;-78
2022/09/08 11:03:50;;;;;;;13.30;4.33;;;;;;;39.92;37.91;101233.97;5033846;28;20501;-78
2022/09/08 11:06:39;;;;;;;18.90;5.10;;;;;;;40.22;37.02;101234.31;5033720;28;20465;-79
2022/09/08 11:09:56;;;;;;;10.67;4.83;;;;;;;40.24;37.02;101234.78;5035025;28;20430;-79
2022/09/08 11:12:43;;;;;;;11.33;6.50;;;;;;;40.57;37.09;101237.94;4996389;28;21006;-78
2022/09/08 11:15:31;;;;;;;9.60;4.93;;;;;;;40.34;37.11;101231.78;5013056;28;20416;-80
2022/09/08 11:18:36;;;;;;;12.10;5.33;;;;;;;40.24;37.19;101223.91;4983794;28;21025;-79
2022/09/08 11:21:07;;;;;;;13.80;7.53;;;;;;;40.64;36.87;101232.88;4996164;28;20476;-79
2022/09/08 11:24:11;;;;;;;18.70;7.63;;;;;;;40.35;36.93;101222.53;4980384;28;20498;-78
2022/09/08 11:26:53;;;;;;;25.10;9.20;;;;;;;40.82;36.38;101222.81;4993575;28;20440;-79
2022/09/08 11:29:19;;;;;;;12.90;6.80;;;;;;;40.74;36.26;101220.88;4996433;28;20432;-77
2022/09/08 11:32:33;;;;;;;24.83;8.53;;;;;;;40.73;36.73;101225.53;4996266;28;20514;-79
2022/09/08 11:35:39;;;;;;;16.73;6.33;;;;;;;40.61;36.54;101219.91;4973324;28;20426;-79
2022/09/08 11:39:06;;;;;;;16.77;6.10;;;;;;;40.59;37.02;101224.06;4997327;28;20424;-78
2022/09/08 11:42:23;;;;;;;22.83;7.93;;;;;;;41.06;36.07;101206.06;4999437;28;20428;-78
2022/09/08 11:45:10;;;;;;;11.80;5.90;;;;;;;40.69;36.57;101216.38;5032895;28;20512;-78
2022/09/08 11:47:56;;;;;;;17.00;7.87;;;;;;;41.03;35.65;101188.47;5033384;28;20994;-78
2022/09/08 11:51:33;;;;;;;12.23;5.13;;;;;;;41.05;36.10;101183.50;5003831;28;20505;-79
2022/09/08 11:54:37;;;;;;;11.80;5.17;;;;;;;40.81;36.44;101177.69;5033985;28;20419;-78
2022/09/08 11:57:25;;;;;;;11.20;5.23;;;;;;;41.22;35.78;101171.78;5032640;28;20454;-78
2022/09/08 12:00:34;;;;;;;13.40;5.40;;;;;;;41.09;35.53;101178.22;5033119;28;20463;-79
2022/09/08 12:03:49;;;;;;;20.53;7.47;;;;;;;41.45;35.48;101163.47;5022063;28;20443;-79
2022/09/08 12:06:52;;;;;;;13.53;7.40;;;;;;;40.81;36.33;101162.16;5006674;28;20432;-79
2022/09/08 12:10:00;;;;;;;10.47;5.70;;;;;;;41.25;35.98;101156.72;5032155;28;20423;-79
2022/09/08 12:12:49;;;;;;;14.00;6.47;;;;;;;41.58;35.41;101151.59;5033797;28;20428;-80
2022/09/08 12:15:19;;;;;;;11.77;5.47;;;;;;;41.37;35.46;101151.47;5019884;28;20455;-79
2022/09/08 12:18:09;;;;;;;12.87;5.73;;;;;;;41.48;34.99;101146.47;5026447;28;20927;-80
2022/09/08 12:24:26;;;;;;;9.77;4.97;;;;;;;41.67;35.26;101138.72;5063834;22;20544;-81
2022/09/08 12:27:04;;;;;;;12.00;6.70;;;;;;;41.84;34.78;101133.25;5006336;28;20438;-82
2022/09/08 12:29:39;;;;;;;11.93;6.10;;;;;;;41.68;34.87;101136.78;5051393;28;20856;-81
2022/09/08 12:32:43;;;;;;;22.33;8.97;;;;;;;42.01;34.50;101128.84;5035476;28;20442;-82
2022/09/08 12:35:22;;;;;;;18.03;8.50;;;;;;;42.00;34.33;101133.50;5012587;28;20953;-78
2022/09/08 12:37:58;;;;;;;12.13;5.10;;;;;;;41.79;34.47;101140.78;5035096;28;20457;-77
2022/09/08 12:41:01;;;;;;;16.43;6.17;;;;;;;41.44;34.62;101134.66;5035357;28;20454;-78
2022/09/08 12:43:41;;;;;;;18.00;8.63;;;;;;;41.25;35.55;101124.91;5053143;28;20528;-80
2022/09/08 12:46:39;;;;;;;15.60;6.20;;;;;;;41.11;35.81;101126.97;5053230;28;20425;-79
2022/09/08 12:49:38;;;;;;;17.87;6.33;;;;;;;40.74;36.64;101133.84;5053032;28;20442;-78
2022/09/08 12:52:29;;;;;;;23.63;6.23;;;;;;;40.26;37.71;101118.38;5035057;28;20438;-79
2022/09/08 12:55:09;;;;;;;13.40;6.43;;;;;;;40.03;37.95;101118.47;5021393;28;20478;-78
2022/09/08 12:57:54;;;;;;;19.40;8.10;;;;;;;39.29;39.48;101112.00;5018741;28;20433;-79
2022/09/08 13:00:43;;;;;;;28.63;11.17;;;;;;;39.60;38.59;101120.19;5034928;28;20470;-78
2022/09/08 13:03:38;;;;;;;17.50;6.33;;;;;;;39.44;38.48;101111.63;5018683;28;20430;-78
2022/09/08 13:06:25;;;;;;;20.43;12.37;;;;;;;39.82;37.76;101103.03;5031141;28;20426;-78
2022/09/08 13:09:00;;;;;;;21.50;11.07;;;;;;;40.17;37.25;101090.41;5034809;28;20437;-78
2022/09/08 13:11:47;;;;;;;18.70;7.03;;;;;;;40.01;37.78;101090.00;5034803;28;20517;-78
2022/09/08 13:14:14;;;;;;;12.00;5.47;;;;;;;39.67;37.48;101085.25;5033716;28;20950;-78
2022/09/08 13:16:58;;;;;;;17.03;5.97;;;;;;;39.47;37.90;101075.69;5034711;28;20441;-78
2022/09/08 13:19:30;;;;;;;16.43;7.03;;;;;;;39.71;37.62;101078.06;5034527;28;20434;-78
2022/09/08 13:22:40;;;;;;;22.80;6.60;;;;;;;40.04;37.78;101073.13;5034660;28;20435;-78
2022/09/08 13:25:47;;;;;;;14.17;8.83;;;;;;;40.42;37.38;101061.66;4949161;28;20827;-78
2022/09/08 13:28:34;;;;;;;16.23;8.63;;;;;;;40.42;37.12;101056.22;4931232;28;20468;-79
2022/09/08 13:31:37;;;;;;;15.10;6.87;;;;;;;40.82;36.08;101048.72;5032134;28;20446;-79
2022/09/08 13:34:19;;;;;;;16.37;7.07;;;;;;;40.92;36.51;101053.84;5034593;28;20500;-79
2022/09/08 13:37:29;;;;;;;8.80;5.10;;;;;;;40.85;35.80;101039.91;5009908;28;20434;-77
2022/09/08 13:40:10;;;;;;;12.27;7.00;;;;;;;41.12;35.30;101043.41;5029988;28;20462;-78
2022/09/08 13:43:04;;;;;;;15.93;5.87;;;;;;;41.44;35.33;101031.97;5034112;28;20541;-79
2022/09/08 13:45:52;;;;;;;9.97;5.70;;;;;;;41.92;34.25;101040.88;5034152;28;20426;-79
2022/09/08 13:49:09;;;;;;;23.00;8.73;;;;;;;42.09;33.59;101046.22;5034063;28;21012;-77
2022/09/08 13:51:59;;;;;;;21.87;6.67;;;;;;;41.78;34.34;101049.31;4992869;28;20446;-78
2022/09/08 13:54:43;;;;;;;14.50;5.73;;;;;;;41.45;34.80;101041.75;5012384;28;20465;-77
2022/09/08 13:57:27;;;;;;;20.53;7.63;;;;;;;41.20;34.98;101040.69;5034503;28;20863;-76
2022/09/08 14:00:11;;;;;;;29.23;8.83;;;;;;;41.22;35.22;101032.19;5051934;28;20454;-77
2022/09/08 14:02:56;;;;;;;19.13;7.90;;;;;;;41.27;35.09;101038.25;5017958;28;20445;-77
2022/09/08 14:05:31;;;;;;;21.33;9.20;;;;;;;40.88;36.11;101033.03;5033522;28;20460;-77
2022/09/08 14:08:15;;;;;;;15.63;7.70;;;;;;;41.38;34.97;101027.84;5033933;28;20942;-77
2022/09/08 14:10:41;;;;;;;15.43;5.60;;;;;;;41.11;35.06;101033.66;5006211;28;20430;-78
2022/09/08 14:13:17;;;;;;;17.13;9.17;;;;;;;40.71;35.94;101034.66;5033680;28;20483;-78
2022/09/08 14:16:03;;;;;;;16.67;7.27;;;;;;;40.91;35.88;101025.06;5033550;28;20819;-77
2022/09/08 14:18:44;;;;;;;13.23;6.07;;;;;;;41.38;35.32;101027.06;5033470;28;20503;-79
2022/09/08 14:21:54;;;;;;;18.60;7.60;;;;;;;41.54;35.22;101025.34;5012544;28;20462;-78
2022/09/08 14:24:41;;;;;;;13.77;8.03;;;;;;;41.21;35.25;101027.88;4978106;28;20466;-80
2022/09/08 14:27:26;;;;;;;24.00;7.27;;;;;;;40.92;36.08;101023.13;5024332;28;20944;-77
2022/09/08 14:30:03;;;;;;;10.73;6.90;;;;;;;40.66;36.30;101017.72;5025924;28;20511;-78
2022/09/08 14:33:19;;;;;;;14.20;7.13;;;;;;;40.73;36.10;101012.56;4996925;28;20624;-82
2022/09/08 14:35:48;;;;;;;14.10;6.10;;;;;;;40.69;36.46;101009.69;4950551;28;20483;-77
2022/09/08 14:38:31;;;;;;;21.47;9.77;;;;;;;40.59;36.74;101012.75;4998392;28;20430;-82
2022/09/08 14:41:09;;;;;;;10.70;5.30;;;;;;;40.59;36.06;101003.81;5012965;28;20481;-78
2022/09/08 14:43:38;;;;;;;17.37;7.37;;;;;;;40.74;36.06;101003.28;5013128;28;20509;-79
2022/09/08 14:46:10;;;;;;;23.33;7.53;;;;;;;40.36;36.71;100981.38;5031128;28;21010;-80
2022/09/08 14:49:00;;;;;;;12.97;9.00;;;;;;;40.41;36.61;100995.63;4997219;28;20447;-79